Time;durP1;ratioP1;P1;durP2;ratioP2;P2;SDS_P1;SDS_P2;PMS_P1;PMS_P2;Temp;Humidity;BMP_temperature;BMP_pressure;BME280_temperature;BME280_humidity;BME280_pressure;Samples;Min_cycle;Max_cycle;Signal;HPM_P1;HPM_P2
2021/12/10 00:00:01;;;;;;;11.60;5.80;;;5.00;47.60;;;;;;5072330;28;20176;-72
2021/12/10 00:02:34;;;;;;;13.47;6.80;;;5.00;45.80;;;;;;5073199;28;20168;-71
2021/12/10 00:05:00;;;;;;;10.63;5.53;;;5.00;48.80;;;;;;5073155;28;20218;-72
2021/12/10 00:07:26;;;;;;;11.07;4.77;;;5.00;45.80;;;;;;5072454;28;20279;-71
2021/12/10 00:09:58;;;;;;;13.47;4.77;;;5.00;45.10;;;;;;5072956;28;20176;-71
2021/12/10 00:12:35;;;;;;;34.77;9.47;;;5.00;38.50;;;;;;5072545;28;20265;-72
2021/12/10 00:15:02;;;;;;;11.37;5.57;;;5.00;40.90;;;;;;5072562;28;20168;-71
2021/12/10 00:17:28;;;;;;;12.73;5.20;;;5.00;40.20;;;;;;5072740;28;20180;-71
2021/12/10 00:19:58;;;;;;;9.23;4.70;;;5.00;38.50;;;;;;5072635;28;20572;-70
2021/12/10 00:22:41;;;;;;;7.63;3.60;;;5.00;34.40;;;;;;5072733;28;20168;-71
2021/12/10 00:25:13;;;;;;;7.40;4.07;;;5.00;31.90;;;;;;5072640;28;20629;-71
2021/12/10 00:27:40;;;;;;;18.80;5.80;;;5.00;30.20;;;;;;5071388;28;20561;-72
2021/12/10 00:30:17;;;;;;;8.03;4.57;;;5.00;30.70;;;;;;5072474;28;20177;-71
2021/12/10 00:33:09;;;;;;;7.67;3.83;;;5.00;30.50;;;;;;5072749;28;20168;-72
2021/12/10 00:35:35;;;;;;;19.03;5.20;;;5.00;28.90;;;;;;5072788;28;20246;-71
2021/12/10 00:38:00;;;;;;;4.07;3.07;;;5.00;29.50;;;;;;5072536;28;20172;-71
2021/12/10 00:40:27;;;;;;;9.27;4.60;;;5.00;30.10;;;;;;5072511;28;20226;-71
2021/12/10 00:42:54;;;;;;;9.10;4.40;;;4.80;29.00;;;;;;5071938;28;20165;-71
2021/12/10 00:45:21;;;;;;;6.77;4.40;;;5.00;31.10;;;;;;5072701;28;20181;-71
2021/12/10 00:47:48;;;;;;;6.70;4.27;;;5.00;29.50;;;;;;5072689;28;20537;-72
2021/12/10 00:50:18;;;;;;;6.43;4.17;;;5.00;25.80;;;;;;5072603;28;20180;-71
2021/12/10 00:52:45;;;;;;;6.60;4.10;;;5.10;23.50;;;;;;5072554;28;20164;-71
2021/12/10 00:55:12;;;;;;;12.37;3.90;;;5.10;20.00;;;;;;5075849;28;20199;-71
2021/12/10 00:57:38;;;;;;;7.37;3.27;;;5.10;18.50;;;;;;5076036;28;20230;-71
2021/12/10 01:00:26;;;;;;;8.47;3.70;;;5.30;17.40;;;;;;5076254;28;20238;-71
2021/12/10 01:02:52;;;;;;;7.10;3.63;;;5.20;17.10;;;;;;5076168;28;20599;-72
2021/12/10 01:05:20;;;;;;;6.90;3.30;;;5.30;13.60;;;;;;5075951;28;20200;-71
2021/12/10 01:07:47;;;;;;;7.87;3.80;;;5.30;14.40;;;;;;5076041;28;20168;-72
2021/12/10 01:10:26;;;;;;;7.70;3.60;;;5.30;16.60;;;;;;5075812;28;20267;-71
2021/12/10 01:12:55;;;;;;;3.97;3.23;;;5.30;15.60;;;;;;5074451;28;20177;-71
2021/12/10 01:24:16;;;;;;;10.43;3.10;;;5.40;10.00;;;;;;5051775;28;20599;-72
2021/12/10 01:29:12;;;;;;;4.87;2.90;;;5.50;9.80;;;;;;5075842;28;20177;-71
2021/12/10 01:31:39;;;;;;;3.90;2.87;;;5.50;9.00;;;;;;5075782;28;20269;-71
2021/12/10 01:34:07;;;;;;;6.77;3.07;;;5.50;12.30;;;;;;5075592;28;20172;-71
2021/12/10 01:36:33;;;;;;;6.27;2.97;;;5.50;15.10;;;;;;5075752;28;20165;-72
2021/12/10 01:38:59;;;;;;;4.63;2.67;;;5.40;16.10;;;;;;5075301;28;20181;-71
2021/12/10 01:41:29;;;;;;;5.83;2.53;;;5.50;18.00;;;;;;5075261;28;20251;-71
2021/12/10 01:44:01;;;;;;;8.80;2.70;;;5.50;14.50;;;;;;5075436;28;20169;-71
2021/12/10 01:46:29;;;;;;;3.37;2.43;;;5.50;15.70;;;;;;5075636;28;20260;-71
2021/12/10 01:49:04;;;;;;;6.47;2.70;;;5.50;16.20;;;;;;5075386;28;20581;-72
2021/12/10 01:51:33;;;;;;;4.20;2.23;;;5.50;16.30;;;;;;5073940;28;20560;-71
2021/12/10 01:54:05;;;;;;;4.23;2.20;;;5.60;10.60;;;;;;5074931;28;20164;-71
2021/12/10 01:56:33;;;;;;;6.93;2.53;;;5.60;6.80;;;;;;5074970;28;20180;-71
2021/12/10 01:59:01;;;;;;;7.70;2.50;;;5.60;8.70;;;;;;5075406;28;20172;-71
2021/12/10 02:01:40;;;;;;;5.63;2.30;;;5.60;5.70;;;;;;5075194;28;20161;-72
2021/12/10 02:04:08;;;;;;;3.70;1.83;;;5.70;4.10;;;;;;5074898;28;20164;-71
2021/12/10 02:06:35;;;;;;;6.50;1.77;;;5.70;2.00;;;;;;5074990;28;20189;-71
2021/12/10 02:09:01;;;;;;;3.67;1.93;;;5.70;4.60;;;;;;5074852;28;20695;-71
2021/12/10 02:11:27;;;;;;;4.23;2.10;;;5.70;1.70;;;;;;5074790;28;20216;-71
2021/12/10 02:13:52;;;;;;;5.67;1.63;;;5.70;3.40;;;;;;5074864;28;20175;-71
2021/12/10 02:16:18;;;;;;;3.73;1.63;;;5.70;5.80;;;;;;5074880;28;20165;-71
2021/12/10 02:18:44;;;;;;;3.33;1.60;;;5.70;1.40;;;;;;5074599;28;20173;-72
2021/12/10 02:21:10;;;;;;;4.13;1.97;;;5.80;3.50;;;;;;5074943;28;20269;-71
2021/12/10 02:23:43;;;;;;;2.63;2.03;;;5.70;5.70;;;;;;5074430;28;20307;-71
2021/12/10 02:26:14;;;;;;;3.23;1.40;;;5.80;1.80;;;;;;5073576;28;20173;-71
2021/12/10 02:28:41;;;;;;;2.47;1.40;;;5.80;2.30;;;;;;5074742;28;20164;-71
2021/12/10 02:31:08;;;;;;;3.83;1.77;;;5.70;1.00;;;;;;5074620;28;20254;-71
2021/12/10 02:33:34;;;;;;;1.93;1.30;;;5.80;1.00;;;;;;5074593;28;20172;-70
2021/12/10 02:36:00;;;;;;;3.37;1.60;;;5.80;5.20;;;;;;5074571;28;20172;-73
2021/12/10 02:38:26;;;;;;;2.53;1.10;;;5.70;1.00;;;;;;5074069;28;20261;-71
2021/12/10 02:40:54;;;;;;;1.90;1.00;;;5.70;1.00;;;;;;5074385;28;20212;-71
2021/12/10 02:43:22;;;;;;;1.93;1.33;;;5.70;7.70;;;;;;5073084;28;20546;-72
2021/12/10 02:45:55;;;;;;;4.17;1.10;;;5.60;8.50;;;;;;5073927;28;20636;-71
2021/12/10 02:48:21;;;;;;;2.03;0.80;;;5.60;11.40;;;;;;5074459;28;20169;-72
2021/12/10 02:50:48;;;;;;;1.73;1.00;;;5.50;12.00;;;;;;5073919;28;20703;-72
2021/12/10 02:53:16;;;;;;;1.13;0.73;;;5.50;15.80;;;;;;5073606;28;20175;-72
2021/12/10 02:55:43;;;;;;;4.13;0.80;;;5.40;17.00;;;;;;5074277;28;20191;-71
2021/12/10 02:58:12;;;;;;;4.70;1.00;;;5.40;23.00;;;;;;5074071;28;20510;-73
2021/12/10 03:01:00;;;;;;;1.97;1.17;;;5.30;25.10;;;;;;5074058;28;20176;-71
2021/12/10 03:03:26;;;;;;;1.13;1.00;;;5.30;33.50;;;;;;5073462;28;20180;-71
2021/12/10 03:05:52;;;;;;;1.23;1.03;;;5.30;34.70;;;;;;5072423;28;20693;-72
2021/12/10 03:08:18;;;;;;;1.43;1.33;;;5.30;41.80;;;;;;5073473;28;20173;-72
2021/12/10 03:10:44;;;;;;;2.77;1.00;;;5.20;40.80;;;;;;5073783;28;20238;-72
2021/12/10 03:13:11;;;;;;;1.80;0.97;;;5.20;45.80;;;;;;5073810;28;20169;-71
2021/12/10 03:15:38;;;;;;;2.90;1.03;;;5.10;49.20;;;;;;5072605;28;20658;-72
2021/12/10 03:18:13;;;;;;;3.53;1.30;;;5.00;52.40;;;;;;5073217;28;20675;-72
2021/12/10 03:20:39;;;;;;;2.53;0.90;;;5.00;57.10;;;;;;5073598;28;20164;-71
2021/12/10 03:23:05;;;;;;;3.50;1.00;;;5.00;58.80;;;;;;5073011;28;20278;-71
2021/12/10 03:25:36;;;;;;;3.50;1.40;;;4.90;62.80;;;;;;5073676;28;20164;-71
2021/12/10 03:28:04;;;;;;;2.60;1.07;;;4.90;68.60;;;;;;5072285;28;20511;-72
2021/12/10 03:30:34;;;;;;;1.10;1.00;;;4.90;72.70;;;;;;5072193;28;20207;-70
2021/12/10 03:33:00;;;;;;;1.20;0.97;;;4.90;71.20;;;;;;5073344;28;20173;-71
2021/12/10 03:35:30;;;;;;;1.50;1.10;;;4.90;70.20;;;;;;5071955;28;20318;-71
2021/12/10 03:37:59;;;;;;;3.30;1.33;;;4.90;69.90;;;;;;5072980;28;20213;-71
2021/12/10 03:40:25;;;;;;;1.67;1.00;;;4.80;69.60;;;;;;5073183;28;20169;-71
2021/12/10 03:42:58;;;;;;;1.43;0.97;;;4.80;70.10;;;;;;5073300;28;20176;-71
2021/12/10 03:45:27;;;;;;;2.87;1.00;;;4.70;72.40;;;;;;5073443;28;20188;-70
2021/12/10 03:47:53;;;;;;;1.77;0.90;;;4.80;73.60;;;;;;5073186;28;20206;-70
2021/12/10 03:50:29;;;;;;;1.63;0.90;;;4.70;74.30;;;;;;5072804;28;20610;-70
2021/12/10 03:52:55;;;;;;;1.30;1.00;;;4.70;76.50;;;;;;5072860;28;20168;-70
2021/12/10 03:55:22;;;;;;;2.57;0.97;;;4.60;77.00;;;;;;5073246;28;20176;-71
2021/12/10 03:57:49;;;;;;;1.30;0.70;;;4.60;68.20;;;;;;5073221;28;20179;-71
2021/12/10 04:00:18;;;;;;;1.43;0.90;;;4.60;73.40;;;;;;5073024;28;20183;-71
2021/12/10 04:02:44;;;;;;;1.10;0.80;;;4.60;71.80;;;;;;5072793;28;20735;-71
2021/12/10 04:05:09;;;;;;;1.37;1.00;;;4.50;76.50;;;;;;5072511;28;20215;-71
2021/12/10 04:07:35;;;;;;;1.20;1.00;;;4.50;82.00;;;;;;5073015;28;20177;-71
2021/12/10 04:10:02;;;;;;;1.23;0.70;;;4.60;81.90;;;;;;5072727;28;20263;-71
2021/12/10 04:12:28;;;;;;;2.27;0.70;;;4.50;76.00;;;;;;5072912;28;20236;-71
2021/12/10 04:14:54;;;;;;;0.70;0.70;;;4.40;75.30;;;;;;5072728;28;20212;-71
2021/12/10 04:17:21;;;;;;;1.57;0.80;;;4.40;80.90;;;;;;5072362;28;20493;-71
2021/12/10 04:19:50;;;;;;;2.97;1.40;;;4.40;85.10;;;;;;5070760;28;20179;-70
2021/12/10 04:22:17;;;;;;;0.90;0.90;;;4.40;87.30;;;;;;5072548;28;20176;-71
2021/12/10 04:24:43;;;;;;;2.23;1.17;;;4.40;84.50;;;;;;5071555;28;20558;-71
2021/12/10 04:27:12;;;;;;;1.57;0.90;;;4.40;83.60;;;;;;5072684;28;20176;-70
2021/12/10 04:29:38;;;;;;;1.90;0.90;;;4.40;86.40;;;;;;5075034;28;20176;-71
2021/12/10 04:32:06;;;;;;;1.07;0.80;;;4.40;85.10;;;;;;5076480;28;20212;-71
2021/12/10 04:34:36;;;;;;;1.83;0.93;;;4.40;83.90;;;;;;5076263;28;20225;-70
2021/12/10 04:37:04;;;;;;;1.00;1.00;;;4.40;86.10;;;;;;5076820;28;20176;-71
2021/12/10 04:39:30;;;;;;;1.17;0.70;;;4.40;86.30;;;;;;5076468;28;20223;-71
2021/12/10 04:41:56;;;;;;;0.80;0.73;;;4.40;81.00;;;;;;5076458;28;20175;-71
2021/12/10 04:44:22;;;;;;;0.73;0.70;;;4.40;80.30;;;;;;5076402;28;20624;-71
2021/12/10 04:46:48;;;;;;;1.80;0.83;;;4.30;81.10;;;;;;5076217;28;20277;-71
2021/12/10 04:49:16;;;;;;;1.20;0.80;;;4.40;81.80;;;;;;5075602;28;20666;-71
2021/12/10 04:51:46;;;;;;;0.87;0.87;;;4.40;79.80;;;;;;5076291;28;20204;-70
2021/12/10 04:54:13;;;;;;;0.70;0.70;;;4.50;77.50;;;;;;5074655;28;20168;-71
2021/12/10 04:56:40;;;;;;;1.20;0.67;;;4.40;66.80;;;;;;5076333;28;20172;-70
2021/12/10 04:59:08;;;;;;;3.13;0.80;;;4.40;68.70;;;;;;5075703;28;20200;-70
2021/12/10 05:01:36;;;;;;;1.37;0.80;;;4.40;68.30;;;;;;5076163;28;20180;-71
2021/12/10 05:04:05;;;;;;;0.60;0.60;;;4.40;69.30;;;;;;5075394;28;20172;-72
2021/12/10 05:06:30;;;;;;;0.67;0.60;;;4.50;65.10;;;;;;5076039;28;20570;-71
2021/12/10 05:08:56;;;;;;;2.00;0.70;;;4.40;63.10;;;;;;5075830;28;20164;-71
2021/12/10 05:11:22;;;;;;;1.43;0.90;;;4.50;65.60;;;;;;5075235;28;20200;-72
2021/12/10 05:13:48;;;;;;;0.80;0.80;;;4.50;66.10;;;;;;5075336;28;20640;-72
2021/12/10 05:16:24;;;;;;;1.47;0.70;;;4.50;66.10;;;;;;5075642;28;20578;-71
2021/12/10 05:18:56;;;;;;;2.27;0.97;;;4.50;63.00;;;;;;5075546;28;20242;-71
2021/12/10 05:21:23;;;;;;;1.47;0.90;;;4.50;58.70;;;;;;5075279;28;20187;-71
2021/12/10 05:23:49;;;;;;;1.33;0.80;;;4.50;53.50;;;;;;5074174;28;20275;-71
2021/12/10 05:26:15;;;;;;;1.53;0.87;;;4.50;58.00;;;;;;5074164;28;20569;-72
2021/12/10 05:28:40;;;;;;;0.70;0.70;;;4.40;60.30;;;;;;5074127;28;20177;-71
2021/12/10 05:31:06;;;;;;;2.20;0.70;;;4.50;65.30;;;;;;5073933;28;20261;-70
2021/12/10 05:33:32;;;;;;;1.03;0.63;;;4.50;59.80;;;;;;5073837;28;20177;-71
2021/12/10 05:35:59;;;;;;;1.63;1.10;;;4.40;55.90;;;;;;5074046;28;20181;-72
2021/12/10 05:38:25;;;;;;;1.33;0.70;;;4.40;58.80;;;;;;5074503;28;20196;-71
2021/12/10 05:40:53;;;;;;;0.80;0.80;;;4.40;59.70;;;;;;5073190;28;20203;-71
2021/12/10 05:43:19;;;;;;;1.80;0.77;;;4.40;65.40;;;;;;5074299;28;20581;-71
2021/12/10 05:45:47;;;;;;;0.70;0.70;;;4.30;61.00;;;;;;5073918;28;20200;-73
2021/12/10 05:48:13;;;;;;;0.50;0.50;;;4.30;65.60;;;;;;5074023;28;20175;-71
2021/12/10 05:50:39;;;;;;;1.17;0.87;;;4.30;68.10;;;;;;5073738;28;20685;-71
2021/12/10 05:53:05;;;;;;;0.80;0.80;;;4.30;70.90;;;;;;5073465;28;20251;-71
2021/12/10 05:55:32;;;;;;;1.47;0.70;;;4.30;68.00;;;;;;5073410;28;20233;-71
2021/12/10 05:57:58;;;;;;;1.23;0.80;;;4.20;66.40;;;;;;5073402;28;20175;-72
2021/12/10 06:00:28;;;;;;;1.27;0.70;;;4.20;70.60;;;;;;5072892;28;20191;-71
2021/12/10 06:02:55;;;;;;;1.00;0.90;;;4.20;70.70;;;;;;5073551;28;20188;-71
2021/12/10 06:05:21;;;;;;;0.57;0.57;;;4.30;75.90;;;;;;5073625;28;20207;-71
2021/12/10 06:07:47;;;;;;;0.70;0.70;;;4.20;69.60;;;;;;5073546;28;20604;-71
2021/12/10 06:10:14;;;;;;;1.47;0.80;;;4.20;70.30;;;;;;5073003;28;20176;-71
2021/12/10 06:12:42;;;;;;;0.70;0.50;;;4.10;75.40;;;;;;5072893;28;20169;-72
2021/12/10 06:15:08;;;;;;;1.63;0.60;;;4.10;72.20;;;;;;5073346;28;20169;-71
2021/12/10 06:17:34;;;;;;;1.47;0.77;;;4.10;74.90;;;;;;5072223;28;20180;-71
2021/12/10 06:20:00;;;;;;;0.90;0.90;;;4.10;77.40;;;;;;5072613;28;20176;-71
2021/12/10 06:22:26;;;;;;;2.47;1.00;;;4.10;81.00;;;;;;5029395;28;1232713;-72
2021/12/10 06:24:52;;;;;;;0.60;0.60;;;4.10;81.50;;;;;;5073255;28;20184;-71
2021/12/10 06:27:18;;;;;;;2.43;0.70;;;4.10;78.30;;;;;;5073764;28;20173;-71
2021/12/10 06:29:44;;;;;;;1.07;0.97;;;4.10;78.90;;;;;;5073433;28;20543;-71
2021/12/10 06:32:10;;;;;;;1.97;1.07;;;4.20;79.40;;;;;;5073452;28;20261;-72
2021/12/10 06:34:36;;;;;;;1.23;0.60;;;4.10;74.90;;;;;;5073628;28;20169;-71
2021/12/10 06:37:04;;;;;;;0.80;0.80;;;4.00;78.70;;;;;;5073406;28;20188;-71
2021/12/10 06:39:29;;;;;;;0.80;0.80;;;4.00;78.80;;;;;;5073690;28;20207;-71
2021/12/10 06:41:55;;;;;;;1.43;0.83;;;4.00;81.00;;;;;;5072487;28;20609;-72
2021/12/10 06:44:22;;;;;;;0.90;0.90;;;4.00;85.90;;;;;;5073319;28;20172;-72
2021/12/10 06:46:48;;;;;;;0.87;0.87;;;4.00;90.30;;;;;;5072817;28;20232;-71
2021/12/10 06:49:15;;;;;;;0.93;0.93;;;4.00;89.90;;;;;;5072324;28;20181;-72
2021/12/10 06:51:41;;;;;;;0.67;0.60;;;4.00;88.30;;;;;;5072056;28;20208;-72
2021/12/10 06:54:07;;;;;;;0.97;0.87;;;3.90;77.80;;;;;;5073578;28;20164;-71
2021/12/10 06:56:35;;;;;;;0.83;0.80;;;3.90;80.80;;;;;;5072534;28;20164;-71
2021/12/10 06:59:02;;;;;;;3.30;0.93;;;3.90;85.30;;;;;;5072475;28;20194;-72
2021/12/10 07:01:32;;;;;;;1.00;1.00;;;3.90;84.90;;;;;;5073208;28;20266;-71
2021/12/10 07:03:59;;;;;;;0.97;0.93;;;3.80;88.30;;;;;;5073330;28;20168;-71
2021/12/10 07:06:28;;;;;;;0.90;0.70;;;3.80;88.30;;;;;;5071927;28;20188;-72
2021/12/10 07:08:56;;;;;;;0.90;0.80;;;3.80;90.60;;;;;;5072826;28;20716;-72
2021/12/10 07:11:23;;;;;;;0.70;0.70;;;3.80;89.60;;;;;;5072325;28;20215;-71
2021/12/10 07:13:53;;;;;;;0.90;0.90;;;3.70;89.40;;;;;;5071502;28;20203;-71
2021/12/10 07:16:20;;;;;;;1.10;1.00;;;3.70;88.60;;;;;;5072536;28;20177;-72
2021/12/10 07:18:46;;;;;;;0.83;0.83;;;3.70;89.60;;;;;;5072533;28;20687;-71
2021/12/10 07:21:15;;;;;;;1.00;1.00;;;3.70;90.30;;;;;;5071934;28;20167;-72
2021/12/10 07:23:42;;;;;;;1.10;1.10;;;3.70;91.00;;;;;;5072303;28;20239;-72
2021/12/10 07:26:10;;;;;;;1.20;1.10;;;3.80;92.40;;;;;;5072467;28;20160;-72
2021/12/10 07:28:36;;;;;;;1.57;1.47;;;3.70;92.70;;;;;;5071969;28;20184;-72
2021/12/10 07:31:03;;;;;;;1.10;1.10;;;3.70;93.80;;;;;;5072447;28;20294;-72
2021/12/10 07:33:29;;;;;;;1.20;1.10;;;3.70;93.60;;;;;;5071941;28;20636;-72
2021/12/10 07:35:54;;;;;;;0.80;0.80;;;3.70;92.60;;;;;;5071861;28;20192;-72
2021/12/10 07:38:21;;;;;;;3.33;1.50;;;3.70;90.80;;;;;;5072717;28;20229;-73
2021/12/10 07:40:47;;;;;;;1.13;1.03;;;3.60;91.20;;;;;;5072091;28;20263;-71
2021/12/10 07:43:14;;;;;;;1.40;1.30;;;3.60;92.30;;;;;;5072002;28;20171;-72
2021/12/10 07:45:42;;;;;;;1.30;1.13;;;3.50;91.80;;;;;;5072127;28;20628;-74
2021/12/10 07:48:11;;;;;;;1.33;1.33;;;3.40;92.20;;;;;;5071641;28;20255;-73
2021/12/10 07:50:49;;;;;;;2.00;1.13;;;3.40;93.50;;;;;;5071622;28;20212;-72
2021/12/10 07:53:18;;;;;;;1.20;1.20;;;3.40;94.80;;;;;;5072186;28;20185;-74
2021/12/10 07:55:43;;;;;;;2.63;1.30;;;3.30;95.50;;;;;;5072029;28;20263;-74
2021/12/10 07:58:09;;;;;;;2.77;1.87;;;3.30;96.60;;;;;;5071233;28;20252;-75
2021/12/10 08:00:38;;;;;;;1.10;1.10;;;3.30;97.50;;;;;;5072062;28;20610;-73
2021/12/10 08:03:04;;;;;;;1.20;1.20;;;3.20;97.50;;;;;;5071692;28;20164;-74
2021/12/10 08:05:30;;;;;;;1.27;1.23;;;3.10;96.80;;;;;;5071449;28;20263;-75
2021/12/10 08:07:56;;;;;;;1.30;1.20;;;3.10;97.40;;;;;;5071770;28;20254;-75
2021/12/10 08:10:22;;;;;;;1.20;1.10;;;3.00;97.60;;;;;;5071459;28;20173;-74
2021/12/10 08:12:48;;;;;;;1.50;1.40;;;3.00;98.60;;;;;;5071457;28;20182;-75
2021/12/10 08:15:15;;;;;;;3.00;1.70;;;2.90;99.20;;;;;;5072003;28;20202;-74
2021/12/10 08:17:42;;;;;;;2.70;1.80;;;2.90;99.10;;;;;;5072058;28;20176;-75
2021/12/10 08:20:12;;;;;;;1.53;1.43;;;2.90;99.80;;;;;;5072014;28;20176;-75
2021/12/10 08:22:38;;;;;;;1.60;1.33;;;2.90;99.90;;;;;;5071384;28;20221;-74
2021/12/10 08:25:05;;;;;;;1.57;1.47;;;2.90;99.90;;;;;;5071004;28;20199;-75
2021/12/10 08:27:30;;;;;;;1.67;1.57;;;2.90;99.90;;;;;;5071329;28;20588;-74
2021/12/10 08:30:02;;;;;;;2.00;1.90;;;2.90;99.90;;;;;;5071966;28;20183;-75
2021/12/10 08:32:29;;;;;;;2.07;1.93;;;2.90;99.90;;;;;;5071832;28;20212;-75
2021/12/10 08:34:55;;;;;;;2.17;1.80;;;2.90;99.90;;;;;;5071983;28;20259;-75
2021/12/10 08:37:27;;;;;;;2.23;2.13;;;2.90;99.90;;;;;;5071938;28;20699;-75
2021/12/10 08:39:53;;;;;;;2.47;2.37;;;3.00;99.90;;;;;;5071294;28;20208;-75
2021/12/10 08:42:18;;;;;;;2.80;2.60;;;3.10;99.90;;;;;;5070434;28;20712;-75
2021/12/10 08:44:45;;;;;;;3.30;2.73;;;3.10;99.90;;;;;;5072042;28;20180;-75
2021/12/10 08:47:12;;;;;;;2.70;2.50;;;3.00;98.60;;;;;;5072020;28;20179;-75
2021/12/10 08:49:39;;;;;;;3.27;3.00;;;3.10;99.50;;;;;;5071337;28;20640;-76
2021/12/10 08:52:08;;;;;;;3.20;3.00;;;3.00;99.50;;;;;;5071609;28;20299;-74
2021/12/10 08:54:34;;;;;;;3.97;2.70;;;3.00;98.80;;;;;;5071633;28;20180;-74
2021/12/10 08:57:00;;;;;;;2.93;2.73;;;3.00;98.90;;;;;;5071199;28;20180;-74
2021/12/10 08:59:26;;;;;;;2.50;2.40;;;3.00;97.60;;;;;;5072058;28;20172;-75
2021/12/10 09:01:56;;;;;;;2.80;2.70;;;2.80;96.10;;;;;;5072003;28;20172;-75
2021/12/10 09:04:24;;;;;;;3.27;3.07;;;2.90;97.30;;;;;;5071710;28;20173;-75
2021/12/10 09:06:55;;;;;;;3.30;3.10;;;3.00;98.40;;;;;;5071339;28;20204;-76
2021/12/10 09:09:21;;;;;;;3.27;3.07;;;3.00;99.10;;;;;;5071791;28;20198;-75
2021/12/10 09:11:51;;;;;;;3.33;3.13;;;3.00;99.20;;;;;;5071221;28;20284;-75
2021/12/10 09:14:17;;;;;;;3.33;3.13;;;3.10;99.00;;;;;;5072380;28;20177;-74
2021/12/10 09:16:44;;;;;;;5.47;3.40;;;3.10;99.40;;;;;;5075222;28;20196;-75
2021/12/10 09:19:13;;;;;;;3.57;3.27;;;3.10;99.10;;;;;;5075355;28;20648;-74
2021/12/10 09:21:42;;;;;;;3.47;3.27;;;3.20;99.50;;;;;;5075083;28;20184;-75
2021/12/10 09:24:10;;;;;;;2.90;2.80;;;3.20;99.40;;;;;;5074134;28;20711;-74
2021/12/10 09:26:43;;;;;;;3.90;3.57;;;3.30;99.50;;;;;;5074897;28;20172;-75
2021/12/10 09:29:11;;;;;;;3.43;3.23;;;3.40;99.10;;;;;;5074682;28;20169;-74
2021/12/10 09:31:39;;;;;;;5.27;3.87;;;3.40;98.90;;;;;;5073607;28;20648;-74
2021/12/10 09:34:06;;;;;;;3.70;3.50;;;3.50;98.50;;;;;;5075223;28;20169;-75
2021/12/10 09:36:32;;;;;;;3.37;3.13;;;3.60;97.80;;;;;;5073729;28;20538;-76
2021/12/10 09:38:58;;;;;;;3.70;3.50;;;3.60;95.60;;;;;;5073225;28;20169;-75
2021/12/10 09:41:25;;;;;;;3.50;3.30;;;3.60;93.70;;;;;;5074684;28;20175;-75
2021/12/10 09:43:51;;;;;;;3.07;2.87;;;3.60;92.30;;;;;;5075180;28;20211;-75
2021/12/10 09:46:17;;;;;;;3.60;3.30;;;3.60;91.90;;;;;;5074817;28;20164;-75
2021/12/10 09:48:46;;;;;;;4.20;3.37;;;3.60;92.80;;;;;;5074924;28;20697;-75
2021/12/10 09:51:16;;;;;;;3.73;3.43;;;3.70;91.20;;;;;;5074304;28;20203;-74
2021/12/10 09:53:46;;;;;;;4.00;3.63;;;3.70;91.90;;;;;;5074189;28;20282;-74
2021/12/10 09:56:15;;;;;;;4.03;3.60;;;3.70;92.10;;;;;;5074851;28;20628;-74
2021/12/10 09:58:41;;;;;;;4.50;3.80;;;3.80;91.50;;;;;;5074240;28;20195;-74
2021/12/10 10:01:21;;;;;;;3.23;3.03;;;3.90;90.90;;;;;;5074845;28;20192;-74
2021/12/10 10:03:50;;;;;;;3.87;3.60;;;3.80;86.80;;;;;;5074055;28;20176;-73
2021/12/10 10:06:17;;;;;;;4.07;3.80;;;3.90;83.70;;;;;;5073976;28;20688;-73
2021/12/10 10:08:43;;;;;;;4.00;3.70;;;3.70;83.80;;;;;;5072462;28;20603;-73
2021/12/10 10:11:21;;;;;;;5.30;3.87;;;3.80;90.10;;;;;;5072510;28;20540;-73
2021/12/10 10:13:50;;;;;;;4.27;3.97;;;3.80;90.10;;;;;;5073967;28;20655;-74
2021/12/10 10:16:20;;;;;;;4.13;3.83;;;3.70;88.80;;;;;;5074333;28;20173;-73
2021/12/10 10:18:46;;;;;;;5.13;4.67;;;3.70;91.40;;;;;;5074311;28;20184;-74
2021/12/10 10:21:17;;;;;;;4.73;4.03;;;3.90;92.90;;;;;;5073841;28;20176;-74
2021/12/10 10:23:43;;;;;;;5.67;5.17;;;3.80;90.40;;;;;;5073971;28;20212;-73
2021/12/10 10:26:13;;;;;;;4.77;4.37;;;3.90;88.80;;;;;;5072791;28;20256;-73
2021/12/10 10:28:40;;;;;;;6.33;3.90;;;3.80;89.10;;;;;;5073949;28;20169;-72
2021/12/10 10:31:14;;;;;;;4.33;4.03;;;3.90;89.60;;;;;;5073429;28;20211;-73
2021/12/10 10:33:40;;;;;;;4.47;3.87;;;3.80;85.90;;;;;;5073676;28;20210;-73
2021/12/10 10:36:17;;;;;;;4.27;3.97;;;3.80;89.40;;;;;;5074077;28;20230;-73
2021/12/10 10:38:46;;;;;;;4.57;4.17;;;3.90;90.90;;;;;;5073223;28;20172;-73
2021/12/10 10:41:12;;;;;;;4.33;4.03;;;3.90;90.20;;;;;;5073886;28;20259;-73
2021/12/10 10:43:38;;;;;;;5.37;4.97;;;4.10;91.10;;;;;;5073823;28;20256;-73
2021/12/10 10:46:05;;;;;;;14.47;10.97;;;4.20;91.50;;;;;;5072282;28;20176;-73
2021/12/10 10:48:31;;;;;;;9.20;7.43;;;4.40;91.70;;;;;;5071520;28;20177;-72
2021/12/10 10:51:04;;;;;;;14.47;10.87;;;4.60;90.10;;;;;;5073099;28;20207;-73
2021/12/10 10:53:44;;;;;;;18.97;14.17;;;4.60;81.60;;;;;;5072674;28;20238;-73
2021/12/10 10:56:17;;;;;;;11.67;9.60;;;4.60;81.50;;;;;;5072515;28;20230;-74
2021/12/10 10:58:47;;;;;;;7.07;5.40;;;4.70;78.20;;;;;;5073089;28;20200;-73
2021/12/10 11:01:28;;;;;;;6.17;5.10;;;4.80;74.30;;;;;;5071453;28;20203;-73
2021/12/10 11:04:00;;;;;;;6.27;5.53;;;4.50;67.40;;;;;;5073131;28;20192;-74
2021/12/10 11:06:37;;;;;;;6.07;4.67;;;4.60;73.10;;;;;;5072679;28;20184;-73
2021/12/10 11:09:17;;;;;;;5.07;4.67;;;4.60;67.70;;;;;;5072588;28;20636;-74
2021/12/10 11:11:56;;;;;;;5.73;5.17;;;4.50;65.20;;;;;;5072513;28;20686;-73
2021/12/10 11:14:33;;;;;;;7.50;5.07;;;4.60;66.30;;;;;;5073238;28;20591;-73
2021/12/10 11:17:27;;;;;;;5.00;4.70;;;4.40;63.00;;;;;;5072571;28;20161;-73
2021/12/10 11:20:05;;;;;;;6.23;5.17;;;4.40;65.50;;;;;;5063347;28;20267;-73
2021/12/10 11:22:34;;;;;;;5.67;5.10;;;4.30;66.70;;;;;;5071879;28;20220;-73
2021/12/10 11:25:19;;;;;;;32.23;5.57;;;4.20;69.70;;;;;;5072360;28;20701;-73
2021/12/10 11:28:08;;;;;;;5.43;4.90;;;4.30;71.10;;;;;;5072611;28;20606;-74
2021/12/10 11:30:39;;;;;;;5.10;4.70;;;4.30;67.20;;;;;;5072240;28;20220;-73
2021/12/10 11:33:14;;;;;;;5.00;4.60;;;4.30;72.00;;;;;;5071151;28;20179;-73
2021/12/10 11:35:48;;;;;;;5.70;5.20;;;4.50;71.80;;;;;;5072289;28;20186;-73
2021/12/10 11:38:23;;;;;;;5.97;4.90;;;4.40;66.60;;;;;;5071620;28;20187;-73
2021/12/10 11:40:54;;;;;;;5.60;5.10;;;4.50;61.00;;;;;;5072467;28;20210;-73
2021/12/10 11:46:29;;;;;;;5.87;5.40;;;4.50;56.20;;;;;;5072730;28;20268;-73
2021/12/10 11:49:04;;;;;;;9.50;6.03;;;4.50;54.90;;;;;;5072039;28;20225;-73
2021/12/10 11:51:46;;;;;;;6.17;5.67;;;4.20;54.90;;;;;;5070456;28;20264;-73
2021/12/10 11:54:26;;;;;;;6.40;5.90;;;4.10;61.20;;;;;;5071994;28;20646;-73
2021/12/10 11:57:12;;;;;;;7.97;7.17;;;4.30;65.30;;;;;;5072379;28;20164;-73
2021/12/10 11:59:46;;;;;;;7.00;6.40;;;4.30;63.20;;;;;;5072012;28;20223;-73
2021/12/10 12:02:20;;;;;;;9.10;7.57;;;4.40;60.00;;;;;;5072173;28;20177;-73
2021/12/10 12:04:58;;;;;;;7.17;6.47;;;4.40;57.00;;;;;;5071445;28;20513;-73
2021/12/10 12:07:29;;;;;;;9.83;9.00;;;4.30;56.90;;;;;;5072353;28;20746;-73
2021/12/10 12:09:57;;;;;;;9.43;7.20;;;4.20;56.90;;;;;;5070928;28;20176;-74
2021/12/10 12:12:27;;;;;;;10.73;7.17;;;4.30;59.50;;;;;;5071240;28;20284;-74
2021/12/10 12:15:06;;;;;;;7.53;6.30;;;4.30;57.70;;;;;;5072345;28;20196;-73
2021/12/10 12:17:34;;;;;;;8.27;7.47;;;4.20;58.10;;;;;;5072384;28;20624;-73
2021/12/10 12:20:00;;;;;;;9.40;8.43;;;4.10;60.00;;;;;;5071658;28;20203;-74
2021/12/10 12:25:29;;;;;;;7.77;6.97;;;3.80;69.40;;;;;;5072386;28;20179;-74
2021/12/10 12:28:05;;;;;;;7.83;7.10;;;3.80;72.10;;;;;;5071787;28;20168;-74
2021/12/10 12:30:31;;;;;;;7.93;7.13;;;3.90;72.50;;;;;;5071806;28;20180;-73
2021/12/10 12:32:58;;;;;;;9.23;7.53;;;4.00;69.00;;;;;;5071214;28;20180;-73
2021/12/10 12:35:33;;;;;;;8.20;7.50;;;3.90;62.80;;;;;;5071897;28;20172;-73
2021/12/10 12:38:29;;;;;;;10.27;8.07;;;4.00;68.30;;;;;;5071200;28;20183;-73
2021/12/10 12:41:12;;;;;;;8.30;7.50;;;4.00;69.90;;;;;;5070228;28;20185;-73
2021/12/10 12:43:40;;;;;;;10.67;9.47;;;4.00;68.30;;;;;;5071660;28;20196;-73
2021/12/10 12:46:09;;;;;;;11.40;10.07;;;4.00;70.90;;;;;;5071768;28;20221;-73
2021/12/10 12:48:37;;;;;;;11.97;10.73;;;4.20;70.80;;;;;;5070111;28;20528;-73
2021/12/10 12:51:14;;;;;;;9.90;8.90;;;4.20;67.70;;;;;;5072872;28;20550;-73
2021/12/10 12:53:39;;;;;;;10.20;8.50;;;4.30;67.70;;;;;;5075958;28;20168;-73
2021/12/10 12:56:16;;;;;;;10.63;8.83;;;4.20;56.00;;;;;;5075668;28;20183;-73
2021/12/10 12:58:57;;;;;;;12.43;10.03;;;4.10;56.80;;;;;;5074520;28;20195;-73
2021/12/10 13:01:34;;;;;;;10.77;9.67;;;4.20;67.80;;;;;;5075370;28;20188;-73
2021/12/10 13:03:59;;;;;;;13.70;10.70;;;4.20;66.60;;;;;;5075170;28;20165;-73
2021/12/10 13:06:31;;;;;;;14.23;10.73;;;4.20;62.40;;;;;;5075308;28;20192;-74
2021/12/10 13:09:04;;;;;;;13.80;11.53;;;4.30;59.80;;;;;;5075525;28;20200;-72
2021/12/10 13:12:19;;;;;;;15.47;12.03;;;4.30;56.60;;;;;;5075223;28;20212;-73
2021/12/10 13:14:55;;;;;;;17.83;13.50;;;4.40;54.00;;;;;;5075318;28;20168;-74
2021/12/10 13:17:23;;;;;;;18.73;14.00;;;4.20;53.60;;;;;;5074030;28;20247;-73
2021/12/10 13:19:52;;;;;;;20.77;14.20;;;4.20;57.90;;;;;;5075168;28;20171;-73
2021/12/10 13:22:22;;;;;;;19.90;15.57;;;4.20;57.90;;;;;;5074720;28;20183;-73